ADDS METAR Data INFO
IDs: Format: Raw Decoded Include TAF

Data at: 1859 UTC 22 Sep 2017

METAR for:PACD (Cold Bay Arpt, AK, US)
Text:PACD 221853Z 34014KT 6SM -RA BR SCT009 BKN015 OVC035 08/08 A2959 RMK AO2 SLP021 P0005 T00830078
Temperature: 8.3°C ( 47°F)
Dewpoint: 7.8°C ( 46°F) [RH = 97%]
Pressure (altimeter):29.59 inches Hg (1002.1 mb) [Sea level pressure: 1002.1 mb]
Winds:from the NNW (340 degrees) at 16 MPH (14 knots; 7.2 m/s)
Visibility: 6 sm ( 10 km)
Ceiling:1500 feet AGL
Clouds: scattered clouds at 900 feet AGL, broken clouds at 1500 feet AGL, overcast cloud deck at 3500 feet AGL
Weather:-RA BR (light rain, mist)
Text:PACD 221838Z 35014G19KT 6SM -RA BR SCT008 BKN013 OVC033 08/08 A2959 RMK AO2 P0003 T00830083
Temperature: 8.3°C ( 47°F)
Dewpoint: 8.3°C ( 47°F) [RH = 100%]
Pressure (altimeter):29.59 inches Hg (1002.1 mb)
Winds:from the N (350 degrees) at 16 MPH (14 knots; 7.2 m/s) gusting to 22 MPH (19 knots; 9.8 m/s)
Visibility: 6 sm ( 10 km)
Ceiling:1300 feet AGL
Clouds: scattered clouds at 800 feet AGL, broken clouds at 1300 feet AGL, overcast cloud deck at 3300 feet AGL
Weather:-RA BR (light rain, mist)
Text:PACD 221823Z 34008KT 5SM RA BR SCT009 SCT017 OVC030 08/07 A2959 RMK AO2 P0002 T00830072
Temperature: 8.3°C ( 47°F)
Dewpoint: 7.2°C ( 45°F) [RH = 93%]
Pressure (altimeter):29.59 inches Hg (1002.1 mb)
Winds:from the NNW (340 degrees) at 9 MPH (8 knots; 4.1 m/s)
Visibility: 5 sm ( 8 km)
Ceiling:3000 feet AGL
Clouds: scattered clouds at 900 feet AGL, scattered clouds at 1700 feet AGL, overcast cloud deck at 3000 feet AGL
Weather:RA BR (moderate rain, mist)
Text:PACD 221813Z 34009KT 7SM -RA OVC031 08/07 A2959 RMK AO2 P0001 T00780072
Temperature: 7.8°C ( 46°F)
Dewpoint: 7.2°C ( 45°F) [RH = 96%]
Pressure (altimeter):29.59 inches Hg (1002.1 mb)
Winds:from the NNW (340 degrees) at 10 MPH (9 knots; 4.6 m/s)
Visibility: 7 sm ( 11 km)
Ceiling:3100 feet AGL
Clouds: overcast cloud deck at 3100 feet AGL
Weather:-RA (light rain)
Text:PACD 221753Z 34011KT 8SM -RA SCT005 OVC024 08/07 A2959 RMK AO2 SLP019 P0003 60012 T00780072 10083 20078 53002
Temperature: 7.8°C ( 46°F)
Dewpoint: 7.2°C ( 45°F) [RH = 96%]
Pressure (altimeter):29.59 inches Hg (1002.1 mb) [Sea level pressure: 1001.9 mb]
Winds:from the NNW (340 degrees) at 13 MPH (11 knots; 5.7 m/s)
Visibility: 8 sm ( 13 km)
Ceiling:2400 feet AGL
Clouds: scattered clouds at 500 feet AGL, overcast cloud deck at 2400 feet AGL
Weather:-RA (light rain)
Text:PACD 221715Z 33007KT 6SM -RA BR SCT005 OVC024 08/08 A2958 RMK AO2 P0001 T00780078
Temperature: 7.8°C ( 46°F)
Dewpoint: 7.8°C ( 46°F) [RH = 100%]
Pressure (altimeter):29.58 inches Hg (1001.8 mb)
Winds:from the NNW (330 degrees) at 8 MPH (7 knots; 3.6 m/s)
Visibility: 6 sm ( 10 km)
Ceiling:2400 feet AGL
Clouds: scattered clouds at 500 feet AGL, overcast cloud deck at 2400 feet AGL
Weather:-RA BR (light rain, mist)
Text:PACD 221653Z 34008KT 9SM -RA SCT012 OVC020 08/07 A2958 RMK AO2 SLP018 P0002 T00780072
Temperature: 7.8°C ( 46°F)
Dewpoint: 7.2°C ( 45°F) [RH = 96%]
Pressure (altimeter):29.58 inches Hg (1001.8 mb) [Sea level pressure: 1001.8 mb]
Winds:from the NNW (340 degrees) at 9 MPH (8 knots; 4.1 m/s)
Visibility: 9 sm ( 14 km)
Ceiling:2000 feet AGL
Clouds: scattered clouds at 1200 feet AGL, overcast cloud deck at 2000 feet AGL
Weather:-RA (light rain)
Text:PACD 221650Z 34008KT 10SM -RA SCT012 OVC020 08/07 A2958 RMK AO2 P0002
Temperature: 8.0°C ( 46°F)
Dewpoint: 7.0°C ( 45°F) [RH = 93%]
Pressure (altimeter):29.58 inches Hg (1001.8 mb)
Winds:from the NNW (340 degrees) at 9 MPH (8 knots; 4.1 m/s)
Visibility:10 or more sm (16+ km)
Ceiling:2000 feet AGL
Clouds: scattered clouds at 1200 feet AGL, overcast cloud deck at 2000 feet AGL
Weather:-RA (light rain)
Text:PACD 221636Z 35012KT 7SM -RA FEW005 OVC012 08/07 A2958 RMK AO2 P0001 T00780072
Temperature: 7.8°C ( 46°F)
Dewpoint: 7.2°C ( 45°F) [RH = 96%]
Pressure (altimeter):29.58 inches Hg (1001.8 mb)
Winds:from the N (350 degrees) at 14 MPH (12 knots; 6.2 m/s)
Visibility: 7 sm ( 11 km)
Ceiling:1200 feet AGL
Clouds: few clouds at 500 feet AGL, overcast cloud deck at 1200 feet AGL
Weather:-RA (light rain)
Text:PACD 221553Z 34012KT 3SM -RA BR BKN005 OVC012 08/08 A2958 RMK AO2 SLP017 P0001 T00780078
Temperature: 7.8°C ( 46°F)
Dewpoint: 7.8°C ( 46°F) [RH = 100%]
Pressure (altimeter):29.58 inches Hg (1001.8 mb) [Sea level pressure: 1001.7 mb]
Winds:from the NNW (340 degrees) at 14 MPH (12 knots; 6.2 m/s)
Visibility: 3 sm ( 5 km)
Ceiling:500 feet AGL
Clouds: broken clouds at 500 feet AGL, overcast cloud deck at 1200 feet AGL
Weather:-RA BR (light rain, mist)
Text:PACD 221453Z AUTO 34010KT 10SM -RA OVC008 08/08 A2958 RMK AO2 CIG 005V012 SLP015 P0003 60006 T00780078 53001 TSNO
Temperature: 7.8°C ( 46°F)
Dewpoint: 7.8°C ( 46°F) [RH = 100%]
Pressure (altimeter):29.58 inches Hg (1001.8 mb) [Sea level pressure: 1001.5 mb]
Winds:from the NNW (340 degrees) at 12 MPH (10 knots; 5.1 m/s)
Visibility:10 or more sm (16+ km)
Ceiling:800 feet AGL
Clouds: overcast cloud deck at 800 feet AGL
Weather:-RA (light rain)
QC Flag:automated observation with no human augmentation
Text:PACD 221353Z AUTO 36013KT 5SM -RA BR OVC007 08/08 A2957 RMK AO2 SLP014 P0001 T00830078 TSNO
Temperature: 8.3°C ( 47°F)
Dewpoint: 7.8°C ( 46°F) [RH = 97%]
Pressure (altimeter):29.57 inches Hg (1001.4 mb) [Sea level pressure: 1001.4 mb]
Winds:from the N (360 degrees) at 15 MPH (13 knots; 6.7 m/s)
Visibility: 5 sm ( 8 km)
Ceiling:700 feet AGL
Clouds: overcast cloud deck at 700 feet AGL
Weather:-RA BR (light rain, mist)
QC Flag:automated observation with no human augmentation

TAF for:PACD (Cold Bay Arpt, AK, US) issued at 1740 UTC 22 Sep 2017
Text:PACD 221740Z 2218/2318 34010KT P6SM -RA FEW005 SCT010 OVC020
Forecast period:1800 to 2200 UTC 22 September 2017
Forecast type:FROM: standard forecast or significant change
Winds:from the NNW (340 degrees) at 12 MPH (10 knots; 5.1 m/s)
Visibility:6 or more sm (10+ km)
Ceiling:2000 feet AGL
Clouds: few clouds at 500 feet AGL, scattered clouds at 1000 feet AGL, overcast cloud deck at 2000 feet AGL
Weather:-RA (light rain)
Text:TEMPO 2219/2222 6SM -RA BR SCT005 BKN010 OVC020
Forecast period:1900 to 2200 UTC 22 September 2017
Forecast type:TEMPORARY: The following changes expected for less than half the time period
Visibility: 6 sm ( 10 km)
Ceiling:1000 feet AGL
Clouds: scattered clouds at 500 feet AGL, broken clouds at 1000 feet AGL, overcast cloud deck at 2000 feet AGL
Weather:-RA BR (light rain, mist)
Text:FM222200 34012G22KT P6SM -SHRA SCT008 BKN015 OVC025
Forecast period:2200 UTC 22 September 2017 to 0700 UTC 23 September 2017
Forecast type:FROM: standard forecast or significant change
Winds:from the NNW (340 degrees) at 14 MPH (12 knots; 6.2 m/s) gusting to 25 MPH (22 knots; 11.3 m/s)
Visibility:6 or more sm (10+ km)
Ceiling:1500 feet AGL
Clouds: scattered clouds at 800 feet AGL, broken clouds at 1500 feet AGL, overcast cloud deck at 2500 feet AGL
Weather:-SHRA (light rain showers)
Text:FM230700 32015KT P6SM SCT015 BKN025 OVC050
Forecast period:0700 to 1800 UTC 23 September 2017
Forecast type:FROM: standard forecast or significant change
Winds:from the NW (320 degrees) at 17 MPH (15 knots; 7.7 m/s)
Visibility:6 or more sm (10+ km)
Ceiling:2500 feet AGL
Clouds: scattered clouds at 1500 feet AGL, broken clouds at 2500 feet AGL, overcast cloud deck at 5000 feet AGL